createdAt,value
2023-04-16T00:01:06.111Z,95926.00
2023-04-16T00:03:53.607Z,95927.84
2023-04-16T00:06:41.167Z,95932.03
2023-04-16T00:09:28.552Z,95926.78
2023-04-16T00:12:15.904Z,95927.59
2023-04-16T00:15:03.233Z,95926.78
2023-04-16T00:17:50.640Z,95926.00
2023-04-16T00:20:37.992Z,95926.00
2023-04-16T00:23:25.324Z,95927.06
2023-04-16T00:26:12.610Z,95922.84
2023-04-16T00:28:59.932Z,95930.69
2023-04-16T00:31:47.238Z,95927.28
2023-04-16T00:34:34.573Z,95929.91
2023-04-16T00:37:21.931Z,95933.31
2023-04-16T00:40:09.269Z,95933.31
2023-04-16T00:42:57.617Z,95932.53
2023-04-16T00:45:44.974Z,95935.72
2023-04-16T00:48:32.305Z,95935.94
2023-04-16T00:51:19.697Z,95941.97
2023-04-16T00:54:07.002Z,95943.56
2023-04-16T00:56:54.310Z,95931.25
2023-04-16T00:59:41.633Z,95940.16
2023-04-16T01:02:29.078Z,95930.69
2023-04-16T01:05:16.481Z,95937.78
2023-04-16T01:08:03.793Z,95941.41
2023-04-16T01:10:51.236Z,95932.78
2023-04-16T01:13:38.541Z,95939.84
2023-04-16T01:16:25.909Z,95936.19
2023-04-16T01:19:13.233Z,95937.22
2023-04-16T01:22:00.589Z,95939.28
2023-04-16T01:24:47.911Z,95936.13
2023-04-16T01:27:35.250Z,95940.59
2023-04-16T01:30:22.606Z,95939.78
2023-04-16T01:33:09.914Z,95938.97
2023-04-16T01:35:57.228Z,95932.97
2023-04-16T01:38:44.557Z,95941.06
2023-04-16T01:41:31.896Z,95941.06
2023-04-16T01:44:19.222Z,95941.06
2023-04-16T01:47:06.643Z,95946.28
2023-04-16T01:49:53.970Z,95949.47
2023-04-16T01:52:41.326Z,95959.72
2023-04-16T01:55:28.663Z,95951.06
2023-04-16T01:58:16.029Z,95960.72
2023-04-16T02:01:03.377Z,95956.31
2023-04-16T02:03:50.874Z,95964.97
2023-04-16T02:06:38.264Z,95956.31
2023-04-16T02:09:25.621Z,95954.47
2023-04-16T02:12:12.919Z,95949.47
2023-04-16T02:15:00.447Z,95944.47
2023-04-16T02:17:47.789Z,95946.28
2023-04-16T02:20:35.189Z,95949.94
2023-04-16T02:23:22.493Z,95957.78
2023-04-16T02:26:09.809Z,95956.47
2023-04-16T02:28:57.109Z,95962.75
2023-04-16T02:31:44.614Z,95963.53
2023-04-16T02:34:31.984Z,95961.69
2023-04-16T02:37:19.697Z,95965.09
2023-04-16T02:40:06.992Z,95967.50
2023-04-16T02:42:54.295Z,95978.75
2023-04-16T02:45:41.636Z,95983.75
2023-04-16T02:48:28.984Z,95981.97
2023-04-16T02:51:16.278Z,95980.13
2023-04-16T02:54:03.631Z,95991.41
2023-04-16T02:56:50.933Z,95986.94
2023-04-16T02:59:38.258Z,95988.78
2023-04-16T03:02:25.646Z,95981.69
2023-04-16T03:05:13.019Z,95991.41
2023-04-16T03:08:00.293Z,95986.94
2023-04-16T03:10:47.602Z,95982.50
2023-04-16T03:13:34.905Z,95989.31
2023-04-16T03:16:22.407Z,95988.53
2023-04-16T03:19:10.112Z,95994.81
2023-04-16T03:21:57.581Z,95995.63
2023-04-16T03:24:44.861Z,95999.25
2023-04-16T03:27:32.210Z,95994.81
2023-04-16T03:30:19.517Z,96000.03
2023-04-16T03:33:06.897Z,95999.25
2023-04-16T03:35:54.224Z,96001.88
2023-04-16T03:38:41.523Z,96001.88
2023-04-16T03:41:28.849Z,96003.72
2023-04-16T03:44:16.189Z,96007.13
2023-04-16T03:47:03.519Z,96007.34
2023-04-16T03:49:50.917Z,96007.34
2023-04-16T03:52:38.256Z,96005.78
2023-04-16T03:55:25.578Z,96011.81
2023-04-16T03:58:12.898Z,96013.63
2023-04-16T04:01:00.273Z,96019.91
2023-04-16T04:03:47.905Z,96013.88
2023-04-16T04:06:35.386Z,96020.69
2023-04-16T04:09:22.697Z,96015.44
2023-04-16T04:12:10.029Z,96021.75
2023-04-16T04:14:57.393Z,96020.94
2023-04-16T04:17:44.725Z,96024.34
2023-04-16T04:20:32.037Z,96025.16
2023-04-16T04:23:19.361Z,96026.97
2023-04-16T04:26:06.666Z,96024.34
2023-04-16T04:28:54.381Z,96024.34
2023-04-16T04:31:41.747Z,96030.38
2023-04-16T04:34:29.139Z,96027.75
2023-04-16T04:37:16.517Z,96041.41
2023-04-16T04:40:03.849Z,96054.53
2023-04-16T04:42:51.153Z,96054.28
2023-04-16T04:45:38.520Z,96052.47
2023-04-16T04:48:25.886Z,96054.28
2023-04-16T04:51:13.198Z,96055.91
2023-04-16T04:54:00.497Z,96060.31
2023-04-16T04:56:47.817Z,96065.31
2023-04-16T04:59:35.098Z,96062.47
2023-04-16T05:02:22.522Z,96061.69
2023-04-16T05:05:09.981Z,96065.88
2023-04-16T05:07:57.349Z,96070.34
2023-04-16T05:10:44.671Z,96071.69
2023-04-16T05:13:32.013Z,96072.72
2023-04-16T05:16:20.214Z,96067.78
2023-04-16T05:19:07.706Z,96075.41
2023-04-16T05:21:55.116Z,96083.81
2023-04-16T05:24:42.423Z,96079.94
2023-04-16T05:27:29.741Z,96077.06
2023-04-16T05:30:17.067Z,96082.88
2023-04-16T05:33:04.379Z,96086.84
2023-04-16T05:35:51.724Z,96094.00
2023-04-16T05:38:39.017Z,96091.94
2023-04-16T05:41:26.364Z,96097.53
2023-04-16T05:44:13.699Z,96109.91
2023-04-16T05:47:01.025Z,96104.19
2023-04-16T05:49:48.314Z,96101.63
2023-04-16T05:52:35.887Z,96106.97
2023-04-16T05:55:23.205Z,96115.69
2023-04-16T05:58:10.528Z,96113.13
2023-04-16T06:00:57.872Z,96115.84
2023-04-16T06:03:45.401Z,96121.13
2023-04-16T06:06:32.841Z,96128.31
2023-04-16T06:09:20.228Z,96127.34
2023-04-16T06:12:07.532Z,96126.34
2023-04-16T06:14:54.853Z,96136.13
2023-04-16T06:17:42.209Z,96133.34
2023-04-16T06:20:29.573Z,96129.19
2023-04-16T06:23:16.882Z,96125.59
2023-04-16T06:26:04.239Z,96124.59
2023-04-16T06:28:51.549Z,96134.91
2023-04-16T06:31:38.903Z,96130.50
2023-04-16T06:34:26.217Z,96124.28
2023-04-16T06:37:13.518Z,96129.34
2023-04-16T06:40:00.926Z,96129.16
2023-04-16T06:42:48.265Z,96131.59
2023-04-16T06:45:35.584Z,96133.25
2023-04-16T06:48:22.919Z,96136.50
2023-04-16T06:51:10.239Z,96138.91
2023-04-16T06:53:57.582Z,96146.34
2023-04-16T06:56:44.882Z,96146.72
2023-04-16T06:59:32.204Z,96149.13
2023-04-16T07:02:19.599Z,96147.88
2023-04-16T07:05:07.088Z,96149.25
2023-04-16T07:07:54.399Z,96147.19
2023-04-16T07:10:41.741Z,96147.56
2023-04-16T07:13:29.023Z,96148.94
2023-04-16T07:16:16.397Z,96152.91
2023-04-16T07:19:03.726Z,96153.00
2023-04-16T07:21:51.666Z,96149.13
2023-04-16T07:24:38.942Z,96145.72
2023-04-16T07:27:26.297Z,96160.56
2023-04-16T07:30:13.614Z,96156.41
2023-04-16T07:33:00.937Z,96159.34
2023-04-16T07:35:48.277Z,96156.75
2023-04-16T07:38:35.627Z,96158.41
2023-04-16T07:41:22.940Z,96161.34
2023-04-16T07:44:10.282Z,96163.22
2023-04-16T07:46:57.626Z,96163.25
2023-04-16T07:49:44.997Z,96165.66
2023-04-16T07:52:33.719Z,96167.53
2023-04-16T07:55:21.051Z,96169.91
2023-04-16T07:57:48.274Z,96168.88
2023-04-16T08:00:15.296Z,96166.00
2023-04-16T08:02:42.426Z,96166.81
2023-04-16T08:05:09.592Z,96170.78
2023-04-16T08:07:36.634Z,96176.59
2023-04-16T08:10:06.119Z,96174.75
2023-04-16T08:12:33.160Z,96174.19
2023-04-16T08:15:00.150Z,96187.13
2023-04-16T08:17:28.335Z,96180.53
2023-04-16T08:19:55.349Z,96191.38
2023-04-16T08:22:22.371Z,96196.91
2023-04-16T08:24:49.415Z,96198.50
2023-04-16T08:27:19.978Z,96194.81
2023-04-16T08:29:47.436Z,96193.47
2023-04-16T08:32:14.456Z,96205.63
2023-04-16T08:34:41.764Z,96200.34
2023-04-16T08:37:08.834Z,96201.94
2023-04-16T08:39:36.169Z,96208.81
2023-04-16T08:42:03.190Z,96212.47
2023-04-16T08:44:30.297Z,96217.50
2023-04-16T08:46:57.405Z,96220.94
2023-04-16T08:49:24.535Z,96223.03
2023-04-16T08:51:51.554Z,96230.41
2023-04-16T08:54:18.638Z,96229.09
2023-04-16T08:56:45.810Z,96224.09
2023-04-16T08:59:12.828Z,96225.16
2023-04-16T09:01:39.918Z,96225.16
2023-04-16T09:04:07.176Z,96230.44
2023-04-16T09:06:34.388Z,96234.09
2023-04-16T09:09:01.425Z,96238.59
2023-04-16T09:11:28.439Z,96239.09
2023-04-16T09:13:55.540Z,96254.94
2023-04-16T09:16:22.701Z,96247.28
2023-04-16T09:18:49.757Z,96251.75
2023-04-16T09:21:16.785Z,96258.88
2023-04-16T09:23:43.844Z,96263.38
2023-04-16T09:26:10.980Z,96267.88
2023-04-16T09:28:38.082Z,96263.09
2023-04-16T09:31:05.177Z,96266.81
2023-04-16T09:33:33.800Z,96269.69
2023-04-16T09:36:01.968Z,96263.09
2023-04-16T09:38:29.020Z,96267.03
2023-04-16T09:40:56.029Z,96268.88
2023-04-16T09:43:23.047Z,96270.19
2023-04-16T09:45:50.136Z,96273.09
2023-04-16T09:48:17.150Z,96270.69
2023-04-16T09:50:44.229Z,96268.06
2023-04-16T09:53:11.275Z,96267.53
2023-04-16T09:55:38.305Z,96269.13
2023-04-16T09:58:05.384Z,96271.50
2023-04-16T10:00:32.515Z,96270.19
2023-04-16T10:03:02.027Z,96269.66
2023-04-16T10:05:29.841Z,96267.06
2023-04-16T10:07:57.084Z,96276.56
2023-04-16T10:10:26.938Z,96275.53
2023-04-16T10:12:54.019Z,96271.84
2023-04-16T10:15:21.037Z,96277.41
2023-04-16T10:17:48.129Z,96264.50
2023-04-16T10:20:16.740Z,96277.44
2023-04-16T10:22:44.320Z,96278.25
2023-04-16T10:25:11.428Z,96275.59
2023-04-16T10:27:38.454Z,96278.53
2023-04-16T10:30:05.741Z,96282.53
2023-04-16T10:32:32.827Z,96276.41
2023-04-16T10:34:59.968Z,96271.38
2023-04-16T10:37:28.035Z,96278.75
2023-04-16T10:39:55.062Z,96279.00
2023-04-16T10:42:22.489Z,96282.91
2023-04-16T10:44:49.741Z,96283.94
2023-04-16T10:47:16.870Z,96279.94
2023-04-16T10:49:44.171Z,96283.56
2023-04-16T10:52:11.291Z,96296.75
2023-04-16T10:54:38.364Z,96281.31
2023-04-16T10:57:05.509Z,96289.44
2023-04-16T10:59:32.538Z,96292.53
2023-04-16T11:01:59.675Z,96298.56
2023-04-16T11:04:26.953Z,96294.28
2023-04-16T11:06:54.104Z,96292.88
2023-04-16T11:09:21.195Z,96296.81
2023-04-16T11:11:48.300Z,96300.22
2023-04-16T11:14:15.408Z,96294.59
2023-04-16T11:16:42.510Z,96297.47
2023-04-16T11:19:09.781Z,96297.72
2023-04-16T11:21:37.009Z,96299.00
2023-04-16T11:24:04.359Z,96303.75
2023-04-16T11:26:31.452Z,96296.31
2023-04-16T11:28:58.466Z,96301.34
2023-04-16T11:31:25.552Z,96301.03
2023-04-16T11:33:52.713Z,96297.84
2023-04-16T11:36:19.859Z,96296.75
2023-04-16T11:38:46.925Z,96305.75
2023-04-16T11:41:13.962Z,96303.59
2023-04-16T11:43:43.454Z,96297.75
2023-04-16T11:46:20.546Z,96302.78
2023-04-16T11:48:53.749Z,96305.16
2023-04-16T11:51:20.826Z,96305.66
2023-04-16T11:53:47.862Z,96309.34
2023-04-16T11:56:14.886Z,96313.78
2023-04-16T11:58:44.396Z,96315.59
2023-04-16T12:01:11.429Z,96306.81
2023-04-16T12:03:38.748Z,96312.06
2023-04-16T12:06:05.921Z,96301.41
2023-04-16T12:08:33.059Z,96301.34
2023-04-16T12:11:00.100Z,96300.22
2023-04-16T12:13:27.287Z,96304.41
2023-04-16T12:15:54.533Z,96296.88
2023-04-16T12:18:21.545Z,96304.47
2023-04-16T12:20:48.597Z,96304.94
2023-04-16T12:23:15.604Z,96302.72
2023-04-16T12:25:42.649Z,96297.06
2023-04-16T12:28:09.685Z,96294.53
2023-04-16T12:30:36.744Z,96298.41
2023-04-16T12:33:03.870Z,96298.91
2023-04-16T12:35:30.931Z,96302.00
2023-04-16T12:37:58.054Z,96310.38
2023-04-16T12:40:25.098Z,96304.41
2023-04-16T12:42:52.251Z,96304.06
2023-04-16T12:45:19.275Z,96310.06
2023-04-16T12:47:46.460Z,96311.28
2023-04-16T12:50:13.580Z,96302.94
2023-04-16T12:52:40.608Z,96303.63
2023-04-16T12:55:07.844Z,96302.50
2023-04-16T12:57:34.868Z,96303.16
2023-04-16T13:00:01.969Z,96295.13
2023-04-16T13:02:29.076Z,96293.94
2023-04-16T13:04:56.217Z,96301.88
2023-04-16T13:07:24.288Z,96296.44
2023-04-16T13:09:51.351Z,96300.91
2023-04-16T13:12:19.371Z,96295.75
2023-04-16T13:14:46.609Z,96297.84
2023-04-16T13:17:15.496Z,96297.25
2023-04-16T13:19:42.653Z,96301.22
2023-04-16T13:22:11.047Z,96297.16
2023-04-16T13:24:38.209Z,96307.25
2023-04-16T13:27:05.331Z,96299.25
2023-04-16T13:29:32.425Z,96308.03
2023-04-16T13:31:59.509Z,96312.56
2023-04-16T13:34:26.942Z,96308.31
2023-04-16T13:36:54.058Z,96303.59
2023-04-16T13:39:21.347Z,96300.41
2023-04-16T13:41:48.416Z,96304.75
2023-04-16T13:44:15.702Z,96313.31
2023-04-16T13:46:42.905Z,96307.00
2023-04-16T13:49:10.330Z,96299.91
2023-04-16T13:51:45.139Z,96302.66
2023-04-16T13:54:12.320Z,96309.91
2023-04-16T13:56:39.541Z,96311.06
2023-04-16T13:59:06.684Z,96315.97
2023-04-16T14:01:37.113Z,96314.47
2023-04-16T14:04:04.270Z,96315.75
2023-04-16T14:06:31.464Z,96321.41
2023-04-16T14:08:58.567Z,96315.97
2023-04-16T14:11:25.590Z,96316.63
2023-04-16T14:13:55.391Z,96319.94
2023-04-16T14:16:22.637Z,96324.03
2023-04-16T14:18:49.685Z,96329.69
2023-04-16T14:21:16.720Z,96327.94
2023-04-16T14:23:43.763Z,96325.13
2023-04-16T14:26:10.822Z,96317.00
2023-04-16T14:28:37.867Z,96320.31
2023-04-16T14:31:05.013Z,96326.03
2023-04-16T14:33:32.064Z,96326.69
2023-04-16T14:36:01.152Z,96325.53
2023-04-16T14:38:29.699Z,96333.06
2023-04-16T14:40:56.772Z,96331.56
2023-04-16T14:43:23.872Z,96336.69
2023-04-16T14:45:53.175Z,96335.22
2023-04-16T14:48:20.188Z,96339.56
2023-04-16T14:50:47.220Z,96344.75
2023-04-16T14:53:14.258Z,96347.00
2023-04-16T14:55:41.364Z,96351.81
2023-04-16T14:58:09.023Z,96346.59
2023-04-16T15:00:36.029Z,96356.16
2023-04-16T15:03:03.146Z,96360.97
2023-04-16T15:05:30.238Z,96351.75
2023-04-16T15:07:57.277Z,96361.56
2023-04-16T15:10:24.339Z,96354.41
2023-04-16T15:12:51.380Z,96356.59
2023-04-16T15:15:18.407Z,96352.38
2023-04-16T15:17:46.090Z,96355.84
2023-04-16T15:20:13.943Z,96352.72
2023-04-16T15:22:40.946Z,96345.84
2023-04-16T15:25:07.977Z,96341.91
2023-04-16T15:27:35.007Z,96334.78
2023-04-16T15:30:02.151Z,96343.25
2023-04-16T15:32:29.240Z,96345.63
2023-04-16T15:34:56.343Z,96338.25
2023-04-16T15:37:23.420Z,96343.00
2023-04-16T15:39:50.614Z,96348.03
2023-04-16T15:42:17.726Z,96339.59
2023-04-16T15:44:44.826Z,96340.38
2023-04-16T15:47:11.884Z,96346.19
2023-04-16T15:49:38.944Z,96345.94
2023-04-16T15:52:06.064Z,96353.56
2023-04-16T15:54:33.127Z,96355.69
2023-04-16T15:57:00.164Z,96355.41
2023-04-16T15:59:27.197Z,96353.84
2023-04-16T16:01:54.550Z,96353.31
2023-04-16T16:04:22.132Z,96358.31
2023-04-16T16:06:49.167Z,96347.78
2023-04-16T16:09:16.254Z,96358.34
2023-04-16T16:11:43.294Z,96356.22
2023-04-16T16:14:10.342Z,96353.84
2023-04-16T16:16:37.372Z,96350.94
2023-04-16T16:19:04.486Z,96353.00
2023-04-16T16:21:31.549Z,96357.75
2023-04-16T16:23:58.786Z,96361.19
2023-04-16T16:26:25.793Z,96362.72
2023-04-16T16:28:52.907Z,96365.81
2023-04-16T16:31:19.944Z,96357.81
2023-04-16T16:33:47.005Z,96368.34
2023-04-16T16:36:14.042Z,96362.94
2023-04-16T16:38:41.113Z,96368.19
2023-04-16T16:41:08.266Z,96369.44
2023-04-16T16:43:35.321Z,96370.66
2023-04-16T16:46:02.377Z,96367.38
2023-04-16T16:48:29.552Z,96370.47
2023-04-16T16:50:56.935Z,96365.84
2023-04-16T16:53:24.927Z,96365.47
2023-04-16T16:55:51.971Z,96368.88
2023-04-16T16:58:19.059Z,96368.50
2023-04-16T17:00:46.170Z,96365.72
2023-04-16T17:03:13.440Z,96367.19
2023-04-16T17:05:41.125Z,96373.19
2023-04-16T17:08:08.160Z,96368.53
2023-04-16T17:10:35.409Z,96366.06
2023-04-16T17:13:02.504Z,96374.66
2023-04-16T17:15:29.523Z,96378.31
2023-04-16T17:17:56.624Z,96394.69
2023-04-16T17:20:23.658Z,96388.72
2023-04-16T17:22:50.664Z,96389.16
2023-04-16T17:25:17.698Z,96392.53
2023-04-16T17:27:44.736Z,96391.69
2023-04-16T17:30:11.752Z,96402.25
2023-04-16T17:32:38.911Z,96399.31
2023-04-16T17:35:05.991Z,96402.16
2023-04-16T17:37:33.077Z,96406.41
2023-04-16T17:40:00.178Z,96400.00
2023-04-16T17:42:27.196Z,96409.06
2023-04-16T17:44:54.208Z,96405.31
2023-04-16T17:47:21.320Z,96403.75
2023-04-16T17:49:48.322Z,96407.19
2023-04-16T17:52:15.527Z,96414.38
2023-04-16T17:54:42.607Z,96408.56
2023-04-16T17:57:09.656Z,96413.09
2023-04-16T17:59:36.652Z,96409.13
2023-04-16T18:02:03.829Z,96410.50
2023-04-16T18:04:31.055Z,96420.63
2023-04-16T18:06:58.242Z,96423.06
2023-04-16T18:09:25.762Z,96419.41
2023-04-16T18:11:52.786Z,96423.44
2023-04-16T18:14:19.845Z,96424.28
2023-04-16T18:16:46.998Z,96429.66
2023-04-16T18:19:14.568Z,96424.91
2023-04-16T18:21:41.557Z,96428.44
2023-04-16T18:24:08.679Z,96435.38
2023-04-16T18:26:36.288Z,96445.78
2023-04-16T18:29:04.031Z,96452.72
2023-04-16T18:31:31.253Z,96454.63
2023-04-16T18:33:58.654Z,96448.06
2023-04-16T18:36:26.010Z,96455.38
2023-04-16T18:39:01.635Z,96455.22
2023-04-16T18:41:29.707Z,96458.19
2023-04-16T18:43:56.842Z,96465.13
2023-04-16T18:46:24.305Z,96466.75
2023-04-16T18:48:51.472Z,96465.47
2023-04-16T18:51:18.785Z,96464.16
2023-04-16T18:53:45.961Z,96460.19
2023-04-16T18:56:13.173Z,96469.50
2023-04-16T18:58:40.297Z,96468.50
2023-04-16T19:01:07.372Z,96468.75
2023-04-16T19:03:34.971Z,96472.00
2023-04-16T19:06:02.051Z,96469.59
2023-04-16T19:08:29.140Z,96476.28
2023-04-16T19:10:56.193Z,96468.06
2023-04-16T19:13:23.410Z,96478.94
2023-04-16T19:15:50.489Z,96482.97
2023-04-16T19:18:17.598Z,96485.63
2023-04-16T19:20:44.734Z,96485.94
2023-04-16T19:23:11.849Z,96483.59
2023-04-16T19:25:38.873Z,96481.25
2023-04-16T19:28:05.931Z,96486.81
2023-04-16T19:30:33.016Z,96488.97
2023-04-16T19:33:00.069Z,96485.78
2023-04-16T19:35:27.202Z,96488.44
2023-04-16T19:37:54.217Z,96491.38
2023-04-16T19:40:21.941Z,96489.00
2023-04-16T19:42:48.959Z,96488.19
2023-04-16T19:45:16.000Z,96497.50
2023-04-16T19:47:43.122Z,96498.84
2023-04-16T19:50:10.178Z,96498.59
2023-04-16T19:52:37.258Z,96500.75
2023-04-16T19:55:04.320Z,96503.66
2023-04-16T19:57:31.352Z,96501.28
2023-04-16T19:59:58.388Z,96500.75
2023-04-16T20:02:25.511Z,96513.50
2023-04-16T20:04:52.636Z,96511.94
2023-04-16T20:07:19.683Z,96516.72
2023-04-16T20:09:46.722Z,96511.94
2023-04-16T20:12:13.759Z,96513.56
2023-04-16T20:14:40.862Z,96513.28
2023-04-16T20:17:08.248Z,96512.00
2023-04-16T20:19:35.352Z,96501.69
2023-04-16T20:22:02.977Z,96504.88
2023-04-16T20:24:30.671Z,96500.16
2023-04-16T20:26:57.726Z,96506.50
2023-04-16T20:29:24.777Z,96507.06
2023-04-16T20:31:51.787Z,96504.97
2023-04-16T20:34:18.780Z,96502.91
2023-04-16T20:36:45.852Z,96503.41
2023-04-16T20:39:13.162Z,96497.59
2023-04-16T20:41:40.471Z,96498.38
2023-04-16T20:44:07.573Z,96501.56
2023-04-16T20:46:34.645Z,96500.50
2023-04-16T20:49:01.824Z,96502.91
2023-04-16T20:51:28.926Z,96506.84
2023-04-16T20:53:56.308Z,96501.56
2023-04-16T20:56:23.349Z,96503.94
2023-04-16T20:58:50.431Z,96509.22
2023-04-16T21:01:17.575Z,96514.25
2023-04-16T21:03:44.888Z,96512.66
2023-04-16T21:06:12.302Z,96514.25
2023-04-16T21:08:39.329Z,96510.53
2023-04-16T21:11:06.569Z,96511.31
2023-04-16T21:13:33.808Z,96512.41
2023-04-16T21:16:00.859Z,96516.09
2023-04-16T21:18:28.554Z,96517.19
2023-04-16T21:20:55.644Z,96514.28
2023-04-16T21:23:22.674Z,96514.56
2023-04-16T21:25:49.751Z,96518.03
2023-04-16T21:28:16.822Z,96513.03
2023-04-16T21:30:43.997Z,96510.13
2023-04-16T21:33:11.041Z,96507.97
2023-04-16T21:35:38.182Z,96513.53
2023-04-16T21:38:05.281Z,96512.97
2023-04-16T21:40:32.385Z,96523.50
2023-04-16T21:42:59.449Z,96512.34
2023-04-16T21:45:26.763Z,96518.13
2023-04-16T21:47:54.477Z,96516.97
2023-04-16T21:50:21.656Z,96519.84
2023-04-16T21:52:48.714Z,96515.03
2023-04-16T21:55:15.788Z,96519.72
2023-04-16T21:57:42.834Z,96522.28
2023-04-16T22:00:09.864Z,96521.44
2023-04-16T22:02:37.047Z,96513.16
2023-04-16T22:05:04.247Z,96508.34
2023-04-16T22:07:31.322Z,96502.97
2023-04-16T22:09:58.369Z,96509.75
2023-04-16T22:12:26.115Z,96508.34
2023-04-16T22:15:02.349Z,96507.25
2023-04-16T22:17:30.474Z,96500.28
2023-04-16T22:19:59.473Z,96501.22
2023-04-16T22:22:26.482Z,96500.34
2023-04-16T22:24:53.519Z,96499.19
2023-04-16T22:27:20.545Z,96508.84
2023-04-16T22:29:47.608Z,96504.25
2023-04-16T22:32:14.775Z,96499.19
2023-04-16T22:34:41.921Z,96498.31
2023-04-16T22:37:08.984Z,96495.81
2023-04-16T22:39:36.110Z,96502.63
2023-04-16T22:42:03.305Z,96503.13
2023-04-16T22:44:30.370Z,96503.59
2023-04-16T22:46:57.454Z,96498.28
2023-04-16T22:49:25.239Z,96499.56
2023-04-16T22:51:52.353Z,96497.66
2023-04-16T22:54:20.885Z,96497.59
2023-04-16T22:56:48.038Z,96499.13
2023-04-16T22:59:15.126Z,96494.59
2023-04-16T23:01:42.190Z,96497.97
2023-04-16T23:04:09.308Z,96498.66
2023-04-16T23:06:36.325Z,96502.03
2023-04-16T23:09:03.442Z,96495.66
2023-04-16T23:11:30.528Z,96494.78
2023-04-16T23:13:57.595Z,96495.53
2023-04-16T23:16:24.836Z,96492.81
2023-04-16T23:18:51.888Z,96488.06
2023-04-16T23:21:18.978Z,96495.84
2023-04-16T23:23:46.036Z,96491.09
2023-04-16T23:26:13.453Z,96489.97
2023-04-16T23:28:40.649Z,96488.88
2023-04-16T23:31:07.759Z,96484.09
2023-04-16T23:33:34.846Z,96489.00
2023-04-16T23:36:01.942Z,96486.31
2023-04-16T23:38:29.071Z,96478.91
2023-04-16T23:40:56.157Z,96489.09
2023-04-16T23:43:23.207Z,96481.94
2023-04-16T23:45:51.757Z,96484.22
2023-04-16T23:48:18.934Z,96484.69
2023-04-16T23:50:46.040Z,96475.69
2023-04-16T23:53:13.106Z,96479.81
2023-04-16T23:55:40.132Z,96471.63
2023-04-16T23:58:07.252Z,96472.09
